Time;durP1;ratioP1;P1;durP2;ratioP2;P2;SDS_P1;SDS_P2;PMS_P1;PMS_P2;Temp;Humidity;BMP_temperature;BMP_pressure;BME280_temperature;BME280_humidity;BME280_pressure;Samples;Min_cycle;Max_cycle;Signal;HPM_P1;HPM_P2
2022/03/13 00:00:15;;;;;;;15.47;11.30;;;;;;;-0.72;46.68;95556.78;5082653;28;20269;-76
2022/03/13 00:02:40;;;;;;;12.02;9.93;;;;;;;-1.09;46.31;95561.75;5085223;28;20443;-76
2022/03/13 00:05:12;;;;;;;13.27;10.30;;;;;;;-1.06;46.06;95559.00;5094192;28;20178;-76
2022/03/13 00:07:38;;;;;;;15.13;11.18;;;;;;;-0.76;45.72;95557.88;5054138;28;20190;-76
2022/03/13 00:10:05;;;;;;;15.38;10.10;;;;;;;-0.76;45.79;95560.44;5074674;28;20196;-76
2022/03/13 00:12:31;;;;;;;13.75;11.38;;;;;;;-0.71;45.84;95558.41;5084958;28;20184;-76
2022/03/13 00:14:58;;;;;;;22.97;12.60;;;;;;;-0.67;45.51;95559.84;5085694;28;20229;-76
2022/03/13 00:17:27;;;;;;;15.75;11.20;;;;;;;-0.51;45.24;95553.66;5080389;28;20200;-76
2022/03/13 00:19:59;;;;;;;15.98;10.10;;;;;;;-0.66;45.37;95556.34;5079848;28;20180;-77
2022/03/13 00:22:25;;;;;;;15.70;11.40;;;;;;;-0.72;45.57;95561.06;5062491;28;20193;-76
2022/03/13 00:24:51;;;;;;;17.27;11.20;;;;;;;-0.65;45.98;95552.84;5076623;28;20175;-76
2022/03/13 00:27:16;;;;;;;12.73;10.17;;;;;;;-0.72;46.06;95551.63;5066999;28;20541;-76
2022/03/13 00:29:42;;;;;;;13.70;10.13;;;;;;;-0.61;45.87;95553.47;5075758;28;20198;-76
2022/03/13 00:32:08;;;;;;;15.80;10.20;;;;;;;-0.71;45.27;95555.00;5064224;28;20174;-76
2022/03/13 00:34:34;;;;;;;15.50;10.32;;;;;;;-1.01;45.49;95545.84;5069529;28;20174;-76
2022/03/13 00:37:00;;;;;;;9.00;6.60;;;;;;;-1.40;46.40;95550.91;5080051;28;20238;-76
2022/03/13 00:39:26;;;;;;;12.77;8.45;;;;;;;-1.22;46.39;95559.16;5096349;28;20194;-76
2022/03/13 00:41:52;;;;;;;11.88;8.70;;;;;;;-0.97;45.63;95552.41;5084950;28;20240;-77
2022/03/13 00:44:17;;;;;;;12.07;9.13;;;;;;;-0.86;45.25;95549.16;5082041;28;20170;-76
2022/03/13 00:46:43;;;;;;;14.23;8.73;;;;;;;-0.72;45.41;95546.50;5080504;28;20185;-77
2022/03/13 00:49:08;;;;;;;19.13;8.70;;;;;;;-0.72;45.39;95554.19;5080632;28;20189;-76
2022/03/13 00:51:34;;;;;;;14.03;8.27;;;;;;;-0.59;44.79;95543.91;5073968;28;20174;-76
2022/03/13 00:53:59;;;;;;;14.40;9.20;;;;;;;-0.50;44.73;95543.28;5081516;28;20847;-76
2022/03/13 00:56:25;;;;;;;11.10;9.40;;;;;;;-0.52;44.62;95536.59;5077076;28;20200;-76
2022/03/13 00:58:50;;;;;;;14.07;8.43;;;;;;;-0.26;44.23;95537.41;5081097;28;20202;-77
2022/03/13 01:01:16;;;;;;;16.27;9.00;;;;;;;-0.32;43.89;95530.09;5067785;28;20181;-77
2022/03/13 01:03:42;;;;;;;9.38;6.88;;;;;;;-0.37;44.39;95533.00;5068313;28;20174;-77
2022/03/13 01:06:08;;;;;;;13.43;9.57;;;;;;;-0.46;44.29;95529.28;5049979;28;20335;-76
2022/03/13 01:08:34;;;;;;;15.70;9.13;;;;;;;-0.45;44.67;95527.56;5064187;28;20197;-77
2022/03/13 01:11:01;;;;;;;13.30;9.07;;;;;;;-0.31;43.51;95527.41;5076148;28;20178;-76
2022/03/13 01:13:27;;;;;;;10.77;8.60;;;;;;;-0.68;44.61;95522.22;5087190;28;20182;-76
2022/03/13 01:16:16;;;;;;;14.73;8.43;;;;;;;-0.44;43.83;95516.34;5074791;28;20228;-77
2022/03/13 01:18:50;;;;;;;11.95;9.50;;;;;;;-0.53;44.63;95509.25;5073329;28;20179;-76
2022/03/13 01:21:16;;;;;;;11.23;8.77;;;;;;;-0.36;44.27;95505.53;5078143;28;20250;-76
2022/03/13 01:24:02;;;;;;;18.92;9.82;;;;;;;-0.13;44.31;95502.19;5070063;28;20170;-76
2022/03/13 01:26:28;;;;;;;13.93;9.05;;;;;;;-0.17;43.99;95505.91;5079884;28;20625;-76
2022/03/13 01:28:59;;;;;;;13.70;9.80;;;;;;;-0.10;43.00;95501.97;5067587;28;20218;-76
2022/03/13 01:31:29;;;;;;;13.85;11.00;;;;;;;-0.11;43.63;95494.38;5070955;28;20174;-76
2022/03/13 01:33:55;;;;;;;13.70;10.40;;;;;;;-0.20;43.32;95496.63;5083026;28;20183;-76
2022/03/13 01:36:21;;;;;;;15.50;10.45;;;;;;;-0.15;43.10;95492.91;5079510;28;20258;-76
2022/03/13 01:38:47;;;;;;;15.30;11.00;;;;;;;-0.14;43.92;95489.44;5069920;28;20173;-76
2022/03/13 01:41:12;;;;;;;18.63;11.07;;;;;;;0.18;42.24;95482.00;5045695;28;20222;-76
2022/03/13 01:43:38;;;;;;;14.83;10.60;;;;;;;-0.61;44.61;95484.91;5080950;28;20193;-76
2022/03/13 01:46:04;;;;;;;13.13;10.37;;;;;;;-0.84;45.88;95483.06;5049425;28;20181;-76
2022/03/13 01:48:38;;;;;;;15.00;9.70;;;;;;;-0.27;45.00;95490.28;5075136;28;20179;-76
2022/03/13 01:51:05;;;;;;;16.33;10.15;;;;;;;-0.62;45.53;95492.72;5050187;28;20198;-76
2022/03/13 01:53:32;;;;;;;11.98;9.30;;;;;;;-0.53;45.42;95493.81;5077579;28;20193;-75
2022/03/13 01:55:58;;;;;;;14.35;8.85;;;;;;;-1.13;46.44;95495.31;5082388;28;20178;-75
2022/03/13 01:58:23;;;;;;;12.75;8.77;;;;;;;-0.58;45.53;95501.06;5076346;28;20182;-76
2022/03/13 02:00:49;;;;;;;11.70;7.10;;;;;;;-0.67;45.58;95503.28;5079785;28;20187;-75
2022/03/13 02:03:16;;;;;;;8.37;7.47;;;;;;;-0.85;45.49;95509.69;5061060;28;20248;-76
2022/03/13 02:05:45;;;;;;;14.90;8.23;;;;;;;-0.15;44.64;95514.34;5067812;28;20187;-76
2022/03/13 02:08:18;;;;;;;15.52;7.43;;;;;;;-0.57;45.47;95508.63;5059693;28;20185;-76
2022/03/13 02:10:44;;;;;;;7.40;6.32;;;;;;;-0.36;43.47;95503.78;5080704;28;20170;-75
2022/03/13 02:13:11;;;;;;;12.47;8.70;;;;;;;-0.80;44.25;95507.63;5072915;28;20669;-76
2022/03/13 02:15:38;;;;;;;14.05;10.02;;;;;;;-1.04;45.51;95510.09;5080726;28;20225;-76
2022/03/13 02:18:04;;;;;;;16.95;10.45;;;;;;;-1.44;47.43;95508.41;5054697;28;20264;-76
2022/03/13 02:20:38;;;;;;;15.40;10.68;;;;;;;-1.32;47.79;95500.81;5080823;28;20166;-76
2022/03/13 02:23:27;;;;;;;26.30;14.68;;;;;;;-1.35;47.94;95501.00;5071006;28;20185;-76
2022/03/13 02:25:56;;;;;;;25.00;13.45;;;;;;;-1.15;48.25;95508.22;5066068;28;20184;-76
2022/03/13 02:28:25;;;;;;;18.85;14.45;;;;;;;-1.02;47.46;95509.06;5073804;28;20185;-76
2022/03/13 02:30:52;;;;;;;24.67;13.23;;;;;;;-1.27;48.59;95503.88;5065777;28;20237;-76
2022/03/13 02:33:21;;;;;;;16.00;11.80;;;;;;;-1.29;48.89;95506.59;5055115;28;20177;-76
2022/03/13 02:36:00;;;;;;;27.65;14.73;;;;;;;-1.24;49.28;95508.84;5063996;28;20193;-76
2022/03/13 02:38:28;;;;;;;26.08;15.07;;;;;;;-1.31;49.63;95505.88;5077281;28;20175;-76
2022/03/13 02:40:55;;;;;;;20.90;15.57;;;;;;;-1.30;49.80;95509.25;5061592;28;20181;-77
2022/03/13 02:43:21;;;;;;;28.88;16.48;;;;;;;-0.98;48.88;95510.50;5066316;28;20174;-76
2022/03/13 02:45:47;;;;;;;19.40;14.73;;;;;;;-0.81;48.47;95506.81;5079947;28;20184;-76
2022/03/13 02:48:12;;;;;;;18.33;14.13;;;;;;;-0.77;48.51;95502.28;5072992;28;20177;-78
2022/03/13 02:50:40;;;;;;;21.13;14.67;;;;;;;-0.74;47.75;95504.66;5067462;28;20294;-76
2022/03/13 02:53:06;;;;;;;23.08;16.30;;;;;;;-0.81;48.17;95508.56;5058556;28;20241;-77
2022/03/13 02:55:32;;;;;;;18.85;13.07;;;;;;;-0.92;48.40;95513.59;5054237;28;20186;-76
2022/03/13 02:57:58;;;;;;;21.80;14.85;;;;;;;-0.82;48.44;95512.84;5079723;28;20182;-76
2022/03/13 03:00:48;;;;;;;20.17;13.63;;;;;;;-1.06;48.12;95507.63;5065930;28;20190;-77
2022/03/13 03:03:16;;;;;;;22.00;12.40;;;;;;;-1.48;48.86;95509.53;5065765;28;20178;-76
2022/03/13 03:05:42;;;;;;;21.88;15.15;;;;;;;-1.50;49.30;95513.94;5072430;28;20178;-76
2022/03/13 03:08:09;;;;;;;24.77;13.07;;;;;;;-1.00;48.49;95502.09;5085468;28;20683;-76
2022/03/13 03:10:36;;;;;;;18.60;12.55;;;;;;;-1.43;49.49;95497.19;5069418;28;20525;-75
2022/03/13 03:13:02;;;;;;;17.05;12.77;;;;;;;-1.42;48.90;95496.28;5076772;28;20185;-76
2022/03/13 03:15:28;;;;;;;26.65;15.55;;;;;;;-1.26;49.04;95496.09;5085837;28;20232;-76
2022/03/13 03:17:53;;;;;;;17.23;12.50;;;;;;;-1.65;49.67;95499.50;5081835;28;20183;-76
2022/03/13 03:20:20;;;;;;;24.07;13.63;;;;;;;-2.39;52.02;95494.69;5068469;28;20181;-76
2022/03/13 03:22:47;;;;;;;21.90;11.80;;;;;;;-1.88;50.99;95495.84;5056764;28;20525;-76
2022/03/13 03:25:13;;;;;;;19.52;12.48;;;;;;;-1.29;49.30;95485.19;5086525;28;20177;-76
2022/03/13 03:27:40;;;;;;;17.10;11.87;;;;;;;-1.24;48.93;95489.09;5087411;28;20237;-76
2022/03/13 03:30:06;;;;;;;15.60;11.13;;;;;;;-1.02;48.52;95501.38;5070530;28;20468;-77
2022/03/13 03:32:31;;;;;;;16.50;13.02;;;;;;;-1.03;48.22;95492.00;5072119;28;20237;-76
2022/03/13 03:34:58;;;;;;;15.27;10.53;;;;;;;-1.28;48.51;95492.00;5080083;28;20182;-76
2022/03/13 03:37:24;;;;;;;14.20;11.35;;;;;;;-1.55;49.28;95492.06;5087667;28;20272;-75
2022/03/13 03:39:49;;;;;;;21.60;11.27;;;;;;;-1.34;49.21;95482.94;5078318;28;20211;-76
2022/03/13 03:42:14;;;;;;;19.77;12.57;;;;;;;-1.20;48.29;95482.84;5073496;28;20676;-76
2022/03/13 03:44:40;;;;;;;20.53;13.70;;;;;;;-1.21;48.74;95482.97;5076971;28;20209;-76
2022/03/13 03:47:05;;;;;;;26.63;17.03;;;;;;;-1.77;50.23;95481.41;5075545;28;20284;-76
2022/03/13 03:49:34;;;;;;;22.77;14.47;;;;;;;-1.40;49.31;95478.22;5076026;28;20692;-77
2022/03/13 03:51:59;;;;;;;19.13;14.45;;;;;;;-1.26;48.89;95483.25;5071620;28;20176;-76
2022/03/13 03:54:25;;;;;;;21.23;14.67;;;;;;;-1.16;48.65;95480.91;5056847;28;20261;-76
2022/03/13 03:56:50;;;;;;;24.83;16.63;;;;;;;-1.35;49.61;95483.84;5081780;28;20220;-77
2022/03/13 03:59:19;;;;;;;16.50;12.67;;;;;;;-1.15;49.31;95489.44;5064328;28;20721;-76
2022/03/13 04:01:45;;;;;;;25.75;13.45;;;;;;;-1.06;48.84;95484.50;5068553;28;20174;-76
2022/03/13 04:04:10;;;;;;;19.40;13.80;;;;;;;-1.61;50.12;95478.69;5063090;28;20543;-76
2022/03/13 04:06:40;;;;;;;18.53;13.80;;;;;;;-1.61;49.83;95480.44;5068482;28;20170;-77
2022/03/13 04:09:10;;;;;;;23.58;12.30;;;;;;;-1.38;49.73;95486.66;5072912;28;20198;-76
2022/03/13 04:11:36;;;;;;;17.70;10.27;;;;;;;-1.80;50.34;95488.50;5088734;28;20502;-76
2022/03/13 04:14:02;;;;;;;23.20;14.50;;;;;;;-1.61;50.06;95486.38;5083465;28;20664;-76
2022/03/13 04:16:28;;;;;;;21.40;14.90;;;;;;;-1.24;49.41;95478.84;5051992;28;20247;-76
2022/03/13 04:18:54;;;;;;;25.23;14.07;;;;;;;-1.20;48.88;95474.31;5051636;28;20176;-76
2022/03/13 04:21:20;;;;;;;26.02;14.77;;;;;;;-1.17;48.70;95469.00;5030486;28;20323;-77
2022/03/13 04:23:46;;;;;;;21.80;12.60;;;;;;;-1.04;48.22;95476.72;5031405;28;20198;-76
2022/03/13 04:26:12;;;;;;;20.77;13.50;;;;;;;-1.08;48.51;95468.38;5038218;28;20210;-76
2022/03/13 04:28:37;;;;;;;21.53;13.83;;;;;;;-0.95;48.18;95462.41;5054505;28;20418;-76
2022/03/13 04:31:06;;;;;;;18.83;12.67;;;;;;;-1.00;48.26;95458.41;5050360;28;20298;-76
2022/03/13 04:33:35;;;;;;;23.52;13.50;;;;;;;-1.07;48.04;95464.88;5035556;28;20238;-76
2022/03/13 04:36:03;;;;;;;19.00;15.00;;;;;;;-0.96;47.50;95465.94;5028688;28;20187;-76
2022/03/13 04:38:29;;;;;;;19.63;14.07;;;;;;;-0.79;47.26;95455.31;5028526;28;20311;-76
2022/03/13 04:40:55;;;;;;;19.85;13.73;;;;;;;-0.66;46.98;95461.25;5036907;28;20243;-76
2022/03/13 04:43:22;;;;;;;20.85;14.02;;;;;;;-0.96;47.02;95464.16;5040492;28;20182;-77
2022/03/13 04:45:49;;;;;;;21.55;16.58;;;;;;;-1.56;49.25;95468.13;5062045;28;20190;-77
2022/03/13 04:48:16;;;;;;;22.30;16.17;;;;;;;-1.34;49.50;95464.16;5048166;28;20168;-76
2022/03/13 04:50:42;;;;;;;23.05;17.75;;;;;;;-2.11;50.74;95476.78;5051209;28;20214;-76
2022/03/13 04:53:07;;;;;;;24.13;15.50;;;;;;;-1.59;50.18;95469.16;5060216;28;20184;-76
2022/03/13 04:55:33;;;;;;;24.40;17.23;;;;;;;-1.13;49.18;95469.63;5043636;28;20696;-77
2022/03/13 04:57:58;;;;;;;28.30;18.13;;;;;;;-1.38;49.45;95468.69;5061114;28;20187;-76
2022/03/13 05:00:26;;;;;;;24.37;18.37;;;;;;;-1.29;49.46;95464.66;5047873;28;20190;-76
2022/03/13 05:02:51;;;;;;;32.33;18.75;;;;;;;-1.10;48.87;95459.97;5052775;28;20428;-76
2022/03/13 05:05:17;;;;;;;29.13;19.30;;;;;;;-0.98;49.11;95473.72;5033780;28;20175;-76
2022/03/13 05:07:43;;;;;;;35.42;21.73;;;;;;;-0.80;48.84;95471.66;5066118;28;20182;-76
2022/03/13 05:10:10;;;;;;;26.90;21.27;;;;;;;-2.06;50.41;95475.56;5064084;28;20673;-76
2022/03/13 05:12:36;;;;;;;30.20;24.15;;;;;;;-2.43;52.51;95479.59;5049979;28;20434;-77
2022/03/13 05:15:02;;;;;;;37.80;24.17;;;;;;;-1.94;52.11;95473.97;5063872;28;20255;-76
2022/03/13 05:17:27;;;;;;;38.05;25.10;;;;;;;-1.66;51.56;95477.34;5073781;28;20194;-76
2022/03/13 05:19:53;;;;;;;36.33;25.73;;;;;;;-1.04;49.96;95477.53;5085128;28;20637;-76
2022/03/13 05:22:18;;;;;;;48.87;23.47;;;;;;;-1.00;50.07;95491.81;5083060;28;20182;-77
2022/03/13 05:24:44;;;;;;;33.20;22.20;;;;;;;-0.74;49.10;95489.25;5076115;28;20183;-77
2022/03/13 05:27:09;;;;;;;31.93;22.77;;;;;;;-1.35;50.77;95490.75;5081760;28;20174;-76
2022/03/13 05:29:35;;;;;;;33.60;21.90;;;;;;;-1.18;50.42;95472.47;5067420;28;20203;-77
2022/03/13 05:32:00;;;;;;;31.97;23.67;;;;;;;-0.69;49.27;95488.91;5067461;28;20175;-76
2022/03/13 05:34:26;;;;;;;32.03;21.13;;;;;;;-0.49;48.36;95483.25;5083759;28;20194;-77
2022/03/13 05:36:52;;;;;;;28.47;19.20;;;;;;;-0.28;48.00;95493.78;5074263;28;20182;-77
2022/03/13 05:39:17;;;;;;;22.23;17.40;;;;;;;-0.12;47.55;95488.38;5083369;28;20241;-77
2022/03/13 05:41:43;;;;;;;20.27;16.27;;;;;;;-0.27;47.54;95485.13;5075056;28;20230;-76
2022/03/13 05:44:09;;;;;;;34.87;19.80;;;;;;;-0.07;46.99;95485.50;5070037;28;20201;-76
2022/03/13 05:46:36;;;;;;;28.02;16.55;;;;;;;-0.20;47.61;95488.09;5077127;28;20431;-76
2022/03/13 05:49:03;;;;;;;29.08;17.67;;;;;;;-0.28;47.76;95488.66;5078457;28;20198;-76
2022/03/13 05:51:29;;;;;;;26.30;17.08;;;;;;;-0.08;47.25;95494.13;5066848;28;20238;-76
2022/03/13 05:53:54;;;;;;;26.98;17.02;;;;;;;0.05;47.49;95489.78;5078270;28;20205;-76
2022/03/13 05:56:20;;;;;;;24.03;16.30;;;;;;;0.18;46.80;95489.72;5067014;28;20253;-75
2022/03/13 05:58:45;;;;;;;24.83;18.47;;;;;;;-0.55;47.36;95490.53;5060879;28;20212;-76
2022/03/13 06:01:11;;;;;;;27.87;18.43;;;;;;;-0.66;48.80;95493.84;5078838;28;20182;-76
2022/03/13 06:03:38;;;;;;;22.93;17.53;;;;;;;-1.17;49.75;95499.81;5078450;28;20177;-76
2022/03/13 06:06:04;;;;;;;24.30;16.40;;;;;;;-0.31;48.08;95499.13;5087048;28;20522;-76
2022/03/13 06:08:31;;;;;;;25.42;17.08;;;;;;;-0.21;48.12;95504.44;5074235;28;20178;-76
2022/03/13 06:10:57;;;;;;;23.60;17.48;;;;;;;-0.96;49.73;95501.88;5070816;28;20178;-76
2022/03/13 06:13:24;;;;;;;23.75;16.40;;;;;;;0.13;47.36;95508.06;5086701;28;20544;-77
2022/03/13 06:15:50;;;;;;;23.48;16.23;;;;;;;0.42;46.44;95512.91;5084502;28;20217;-77
2022/03/13 06:18:16;;;;;;;25.33;16.20;;;;;;;0.75;46.13;95509.59;5086422;28;20196;-76
2022/03/13 06:20:41;;;;;;;20.42;15.07;;;;;;;1.09;45.64;95507.13;5084506;28;20177;-75
2022/03/13 06:23:09;;;;;;;22.20;15.43;;;;;;;1.09;45.48;95503.72;5058878;28;20192;-76
2022/03/13 06:25:35;;;;;;;23.10;16.33;;;;;;;0.95;45.28;95499.59;5070451;28;20200;-76
2022/03/13 06:28:00;;;;;;;21.80;16.00;;;;;;;0.16;46.85;95502.69;5059416;28;20174;-76
2022/03/13 06:30:26;;;;;;;21.30;16.50;;;;;;;0.78;46.19;95506.00;5079811;28;20236;-76
2022/03/13 06:32:53;;;;;;;24.50;17.67;;;;;;;0.91;46.01;95511.03;5050215;28;20197;-76
2022/03/13 06:35:23;;;;;;;21.13;15.80;;;;;;;0.56;46.36;95504.97;5048008;28;20170;-76
2022/03/13 06:37:53;;;;;;;26.55;16.15;;;;;;;1.06;45.22;95511.66;5070996;28;20268;-76
2022/03/13 06:40:20;;;;;;;20.70;15.95;;;;;;;0.81;45.63;95516.06;5070734;28;20184;-76
2022/03/13 06:42:47;;;;;;;19.58;15.05;;;;;;;0.85;45.29;95520.06;5072155;28;20189;-76
2022/03/13 06:45:13;;;;;;;23.95;16.55;;;;;;;0.30;45.84;95518.91;5081790;28;20177;-76
2022/03/13 06:47:40;;;;;;;24.23;15.30;;;;;;;0.58;45.59;95518.56;5072085;28;20261;-76
2022/03/13 06:50:09;;;;;;;22.05;16.40;;;;;;;0.42;46.24;95523.19;5072385;28;20198;-76
2022/03/13 06:52:35;;;;;;;23.70;16.17;;;;;;;1.06;43.98;95516.81;5069386;28;20201;-76
2022/03/13 06:55:01;;;;;;;21.30;15.40;;;;;;;1.05;43.79;95518.59;5071679;28;20171;-76
2022/03/13 06:57:26;;;;;;;21.98;16.60;;;;;;;0.98;43.85;95510.47;5086275;28;20444;-76
2022/03/13 06:59:52;;;;;;;22.33;15.03;;;;;;;0.71;44.07;95508.19;5074094;28;20181;-76
2022/03/13 07:02:17;;;;;;;24.03;16.10;;;;;;;0.69;44.20;95498.94;5072227;28;20216;-76
2022/03/13 07:04:43;;;;;;;21.17;16.93;;;;;;;0.97;43.78;95503.69;5075459;28;20236;-76
2022/03/13 07:07:08;;;;;;;26.20;15.77;;;;;;;1.44;42.89;95490.75;5047588;28;20170;-76
2022/03/13 07:09:34;;;;;;;18.60;14.30;;;;;;;1.54;42.39;95486.53;5066626;28;20232;-77
2022/03/13 07:12:00;;;;;;;18.17;16.20;;;;;;;1.64;42.68;95486.63;5083246;28;20181;-76
2022/03/13 07:14:26;;;;;;;23.25;16.73;;;;;;;1.45;42.51;95481.25;5078466;28;20409;-75
2022/03/13 07:16:52;;;;;;;32.57;16.97;;;;;;;1.21;43.09;95484.75;5085707;28;20514;-76
2022/03/13 07:19:18;;;;;;;25.42;15.55;;;;;;;1.52;42.65;95477.28;5060627;28;20417;-76
2022/03/13 07:21:44;;;;;;;21.30;17.90;;;;;;;1.18;43.23;95479.84;5050470;28;20315;-76
2022/03/13 07:24:10;;;;;;;29.97;18.27;;;;;;;1.62;42.29;95480.78;5075062;28;21006;-76
2022/03/13 07:26:36;;;;;;;22.57;16.20;;;;;;;1.29;43.13;95482.44;5056462;28;20246;-76
2022/03/13 07:29:01;;;;;;;26.47;15.43;;;;;;;1.70;43.06;95490.50;5056001;28;20194;-76
2022/03/13 07:31:29;;;;;;;20.57;15.57;;;;;;;2.09;41.54;95486.56;5076484;28;20173;-75
2022/03/13 07:34:00;;;;;;;22.17;16.85;;;;;;;1.43;43.39;95489.09;5081630;28;20171;-74
2022/03/13 07:36:26;;;;;;;23.85;18.42;;;;;;;1.83;42.47;95491.19;5057674;28;20543;-75
2022/03/13 07:38:51;;;;;;;23.80;18.97;;;;;;;2.03;42.39;95491.38;5073954;28;20175;-74
2022/03/13 07:41:17;;;;;;;26.37;16.10;;;;;;;1.65;43.10;95496.03;5076956;28;20170;-75
2022/03/13 07:43:42;;;;;;;24.43;18.57;;;;;;;1.50;42.58;95497.19;5079032;28;20182;-75
2022/03/13 07:46:11;;;;;;;28.27;19.37;;;;;;;1.84;42.08;95497.16;5077918;28;20238;-75
2022/03/13 07:48:38;;;;;;;30.58;19.58;;;;;;;2.30;41.64;95493.56;5052435;28;20190;-75
2022/03/13 07:51:05;;;;;;;23.63;18.58;;;;;;;2.65;40.86;95489.91;5068569;28;20238;-74
2022/03/13 07:53:31;;;;;;;23.52;17.65;;;;;;;2.94;40.45;95487.53;5068797;28;20238;-76
2022/03/13 07:55:57;;;;;;;25.55;18.40;;;;;;;3.30;39.80;95480.22;5084294;28;20175;-75
2022/03/13 07:58:22;;;;;;;23.53;17.23;;;;;;;3.12;40.87;95480.81;5075882;28;20198;-75
2022/03/13 08:00:49;;;;;;;27.17;18.93;;;;;;;3.40;39.99;95478.50;5072726;28;20166;-75
2022/03/13 08:03:24;;;;;;;21.23;17.80;;;;;;;3.12;40.33;95480.00;5088882;28;20170;-75
2022/03/13 08:05:51;;;;;;;28.77;18.90;;;;;;;3.19;40.33;95475.97;5068902;28;20433;-75
2022/03/13 08:08:16;;;;;;;22.20;18.30;;;;;;;3.47;39.86;95473.63;5068516;28;20539;-75
2022/03/13 08:10:42;;;;;;;31.63;18.33;;;;;;;4.09;38.60;95459.63;5068242;28;20198;-76
2022/03/13 08:13:07;;;;;;;22.70;18.30;;;;;;;4.38;37.87;95469.25;5074756;28;20189;-75
2022/03/13 08:15:33;;;;;;;21.40;18.00;;;;;;;3.79;39.25;95462.31;5084037;28;20273;-75
2022/03/13 08:17:58;;;;;;;26.80;19.30;;;;;;;3.23;39.69;95445.50;5051746;28;20269;-75
2022/03/13 08:20:24;;;;;;;29.30;20.30;;;;;;;4.05;38.79;95455.69;5060630;28;20258;-75
2022/03/13 08:22:49;;;;;;;27.80;18.77;;;;;;;4.55;38.32;95446.19;5070572;28;20192;-75
2022/03/13 08:25:18;;;;;;;26.70;21.23;;;;;;;4.96;37.83;95450.22;5083140;28;20201;-76
2022/03/13 08:27:44;;;;;;;28.43;19.67;;;;;;;5.08;35.99;95443.09;5067758;28;20175;-75
2022/03/13 08:30:11;;;;;;;33.30;20.97;;;;;;;5.08;36.22;95446.53;5077714;28;20458;-75
2022/03/13 08:32:38;;;;;;;28.70;20.80;;;;;;;4.58;36.47;95449.31;5086322;28;20568;-75
2022/03/13 08:35:05;;;;;;;24.40;18.20;;;;;;;4.63;37.50;95454.06;5077645;28;20487;-75
2022/03/13 08:37:30;;;;;;;29.00;20.00;;;;;;;5.51;35.96;95451.31;5074598;28;20437;-75
2022/03/13 08:39:56;;;;;;;31.47;20.60;;;;;;;5.10;36.74;95443.78;5083827;28;20532;-75
2022/03/13 08:42:21;;;;;;;28.80;20.10;;;;;;;4.66;36.26;95457.22;5088634;28;20174;-75
2022/03/13 08:44:47;;;;;;;29.70;21.30;;;;;;;4.13;37.36;95456.78;5066141;28;20170;-75
2022/03/13 08:47:12;;;;;;;26.30;20.90;;;;;;;4.80;36.35;95458.59;5074920;28;20175;-75
2022/03/13 08:49:38;;;;;;;25.73;21.10;;;;;;;5.44;35.26;95451.88;5073505;28;20202;-75
2022/03/13 08:52:04;;;;;;;29.37;19.97;;;;;;;5.49;34.14;95448.84;5058081;28;20178;-76
2022/03/13 08:54:29;;;;;;;26.60;19.60;;;;;;;6.49;32.45;95435.97;5084372;28;20572;-76
2022/03/13 08:56:55;;;;;;;25.33;20.00;;;;;;;6.93;32.66;95428.22;5088371;28;20423;-75
2022/03/13 08:59:20;;;;;;;32.53;21.13;;;;;;;7.18;32.24;95427.38;5079349;28;20182;-76
2022/03/13 09:01:47;;;;;;;29.83;19.37;;;;;;;6.40;32.50;95424.69;5078090;28;20230;-75
2022/03/13 09:04:13;;;;;;;53.10;21.47;;;;;;;6.76;32.17;95432.47;5078036;28;20178;-75
2022/03/13 09:06:39;;;;;;;30.80;21.40;;;;;;;7.59;32.40;95424.19;5069575;28;20428;-76
2022/03/13 09:09:06;;;;;;;31.67;20.23;;;;;;;7.62;31.61;95421.25;5078870;28;20198;-75
2022/03/13 09:11:34;;;;;;;28.57;19.57;;;;;;;8.25;30.49;95422.59;5080694;28;20788;-76
2022/03/13 09:14:00;;;;;;;27.60;19.90;;;;;;;7.82;31.07;95430.47;5059356;28;20417;-75
2022/03/13 09:16:26;;;;;;;24.30;17.70;;;;;;;7.78;30.77;95423.13;5056267;28;20461;-75
2022/03/13 09:18:52;;;;;;;26.73;18.47;;;;;;;7.74;30.86;95421.78;5046268;28;20480;-75
2022/03/13 09:21:18;;;;;;;26.60;18.33;;;;;;;6.65;31.81;95415.31;5053047;28;20432;-75
2022/03/13 09:23:45;;;;;;;23.53;18.60;;;;;;;6.25;32.31;95411.41;5055465;28;20448;-75
2022/03/13 09:26:11;;;;;;;34.17;20.33;;;;;;;7.37;31.47;95415.94;5029409;28;20469;-75
2022/03/13 09:28:37;;;;;;;33.30;21.30;;;;;;;6.67;31.43;95421.19;5047439;28;20548;-76
2022/03/13 09:31:03;;;;;;;34.97;21.83;;;;;;;7.36;31.06;95409.13;5061527;28;20179;-76
2022/03/13 09:33:28;;;;;;;28.30;22.10;;;;;;;8.12;30.28;95409.19;5047245;28;20421;-75
2022/03/13 09:35:54;;;;;;;32.87;22.53;;;;;;;8.37;29.64;95400.44;5047533;28;20184;-76
2022/03/13 09:38:20;;;;;;;30.47;22.30;;;;;;;8.98;28.92;95398.34;5055020;28;20210;-76
2022/03/13 09:40:45;;;;;;;30.50;22.80;;;;;;;10.08;27.82;95394.22;5048364;28;20186;-76
2022/03/13 09:43:12;;;;;;;31.33;21.63;;;;;;;9.86;28.10;95403.63;5048032;28;20187;-76
2022/03/13 09:45:37;;;;;;;29.90;20.60;;;;;;;8.66;28.84;95404.41;5032102;28;20271;-76
2022/03/13 09:48:06;;;;;;;33.07;22.37;;;;;;;8.11;30.00;95399.75;5064265;28;20417;-75
2022/03/13 09:50:31;;;;;;;31.93;21.70;;;;;;;9.02;29.21;95393.59;5061348;28;20195;-75
2022/03/13 09:52:57;;;;;;;30.47;21.53;;;;;;;9.13;29.42;95385.44;5031177;28;20430;-75
2022/03/13 09:55:23;;;;;;;30.70;22.70;;;;;;;9.69;28.59;95387.19;5057281;28;20181;-76
2022/03/13 09:57:48;;;;;;;26.13;21.33;;;;;;;10.31;28.15;95379.38;5049426;28;20187;-76
2022/03/13 10:00:17;;;;;;;31.20;23.20;;;;;;;9.97;27.90;95380.50;5056679;28;20182;-76
2022/03/13 10:02:43;;;;;;;28.33;20.27;;;;;;;9.39;28.23;95381.78;5066569;28;20186;-75
2022/03/13 10:05:17;;;;;;;28.93;22.20;;;;;;;10.25;27.21;95376.63;5056842;28;20443;-76
2022/03/13 10:07:56;;;;;;;26.90;21.87;;;;;;;9.29;28.83;95379.34;5066408;28;20940;-75
2022/03/13 10:10:24;;;;;;;28.43;20.93;;;;;;;10.28;27.58;95366.63;5061742;28;20476;-75
2022/03/13 10:12:49;;;;;;;31.43;22.00;;;;;;;10.91;27.17;95372.50;5047778;28;20436;-75
2022/03/13 10:15:15;;;;;;;27.17;21.73;;;;;;;11.20;25.64;95365.69;5054577;28;20489;-75
2022/03/13 10:17:41;;;;;;;29.80;21.83;;;;;;;11.69;26.04;95359.06;5070269;28;20173;-76
2022/03/13 10:20:19;;;;;;;29.73;16.10;;;;;;;11.11;25.50;95356.28;5072714;28;20424;-75
2022/03/13 10:22:46;;;;;;;34.83;20.50;;;;;;;10.30;26.99;95359.44;5067092;28;20447;-75
2022/03/13 10:25:13;;;;;;;34.47;22.90;;;;;;;10.07;27.68;95363.78;5071835;28;20428;-76
2022/03/13 10:27:40;;;;;;;26.80;20.87;;;;;;;9.58;28.46;95360.47;5079134;28;21083;-75
2022/03/13 10:30:08;;;;;;;31.73;21.07;;;;;;;9.47;27.28;95355.63;5072432;28;20459;-76
2022/03/13 10:32:34;;;;;;;29.20;20.17;;;;;;;10.01;27.86;95354.03;5075716;28;20603;-75
2022/03/13 10:35:01;;;;;;;23.40;18.50;;;;;;;10.25;27.09;95350.47;5071562;28;20456;-75
2022/03/13 10:37:45;;;;;;;28.67;19.80;;;;;;;9.14;28.38;95352.28;5047790;28;20174;-75
2022/03/13 10:40:17;;;;;;;26.13;18.33;;;;;;;9.90;27.63;95353.47;5060495;28;20404;-76
2022/03/13 10:42:43;;;;;;;23.07;19.60;;;;;;;10.24;27.59;95347.00;5080109;28;20408;-75
2022/03/13 10:45:29;;;;;;;22.90;15.67;;;;;;;10.32;26.07;95347.00;5071488;28;20409;-75
2022/03/13 10:48:21;;;;;;;21.00;15.57;;;;;;;8.48;28.60;95347.19;5068072;28;20174;-76
2022/03/13 10:50:52;;;;;;;25.90;15.00;;;;;;;9.19;28.56;95340.34;5053909;28;20838;-74
2022/03/13 10:53:19;;;;;;;17.10;12.00;;;;;;;8.86;27.57;95339.66;5065877;28;20406;-75
2022/03/13 10:56:03;;;;;;;14.17;11.33;;;;;;;9.80;24.99;95334.53;5065425;28;20425;-75
2022/03/13 10:58:34;;;;;;;12.07;9.77;;;;;;;9.43;25.40;95328.22;5072148;28;20412;-76
2022/03/13 11:01:11;;;;;;;15.17;9.90;;;;;;;9.34;25.65;95331.84;5065713;28;20460;-75
2022/03/13 11:03:54;;;;;;;11.00;8.20;;;;;;;8.69;24.73;95328.41;5074200;28;20939;-75
2022/03/13 11:06:22;;;;;;;13.87;9.87;;;;;;;9.38;24.52;95325.28;5079111;28;20446;-76
2022/03/13 11:08:53;;;;;;;18.90;13.00;;;;;;;9.25;25.89;95319.78;5082845;28;20555;-75
2022/03/13 11:11:20;;;;;;;9.93;8.27;;;;;;;8.73;25.84;95324.50;5078486;28;20432;-75
2022/03/13 11:13:57;;;;;;;12.17;8.40;;;;;;;8.86;26.35;95325.75;5066094;28;20417;-75
2022/03/13 11:16:28;;;;;;;16.17;10.10;;;;;;;8.31;27.10;95322.88;5065625;28;20466;-75
2022/03/13 11:18:56;;;;;;;8.87;7.73;;;;;;;8.42;26.54;95313.91;5056220;28;20432;-75
2022/03/13 11:21:22;;;;;;;10.93;7.67;;;;;;;8.78;25.25;95314.38;5058765;28;20457;-75